sensor_id;sensor_type;location;lat;lon;timestamp;P1;durP1;ratioP1;P2;durP2;ratioP2
42600;SDS011;28229;48.856;9.088;2024-01-15T00:02:15;22.27;;;9.67;;
42600;SDS011;28229;48.856;9.088;2024-01-15T00:04:41;20.20;;;9.60;;
42600;SDS011;28229;48.856;9.088;2024-01-15T00:07:08;18.10;;;8.13;;
42600;SDS011;28229;48.856;9.088;2024-01-15T00:09:34;16.83;;;8.53;;
42600;SDS011;28229;48.856;9.088;2024-01-15T00:12:01;21.23;;;9.87;;
42600;SDS011;28229;48.856;9.088;2024-01-15T00:14:28;19.73;;;9.10;;
42600;SDS011;28229;48.856;9.088;2024-01-15T00:16:54;22.13;;;9.73;;
42600;SDS011;28229;48.856;9.088;2024-01-15T00:19:21;20.03;;;9.23;;
42600;SDS011;28229;48.856;9.088;2024-01-15T00:21:48;23.93;;;9.80;;
42600;SDS011;28229;48.856;9.088;2024-01-15T00:24:14;21.57;;;9.50;;
42600;SDS011;28229;48.856;9.088;2024-01-15T00:26:40;21.40;;;9.63;;
42600;SDS011;28229;48.856;9.088;2024-01-15T00:29:07;19.53;;;8.57;;
42600;SDS011;28229;48.856;9.088;2024-01-15T00:31:34;17.97;;;7.60;;
42600;SDS011;28229;48.856;9.088;2024-01-15T00:34:00;21.50;;;9.03;;
42600;SDS011;28229;48.856;9.088;2024-01-15T00:36:27;22.70;;;9.50;;
42600;SDS011;28229;48.856;9.088;2024-01-15T00:38:53;19.17;;;7.80;;
42600;SDS011;28229;48.856;9.088;2024-01-15T00:41:19;21.03;;;9.30;;
42600;SDS011;28229;48.856;9.088;2024-01-15T00:43:46;17.13;;;7.93;;
42600;SDS011;28229;48.856;9.088;2024-01-15T00:46:15;20.47;;;8.73;;
42600;SDS011;28229;48.856;9.088;2024-01-15T00:48:41;20.57;;;8.90;;
42600;SDS011;28229;48.856;9.088;2024-01-15T00:51:07;16.20;;;7.40;;
42600;SDS011;28229;48.856;9.088;2024-01-15T00:53:33;17.03;;;7.77;;
42600;SDS011;28229;48.856;9.088;2024-01-15T00:56:00;18.67;;;8.10;;
42600;SDS011;28229;48.856;9.088;2024-01-15T00:58:29;15.90;;;7.70;;
42600;SDS011;28229;48.856;9.088;2024-01-15T01:00:55;21.40;;;7.80;;
42600;SDS011;28229;48.856;9.088;2024-01-15T01:03:21;17.30;;;8.33;;
42600;SDS011;28229;48.856;9.088;2024-01-15T01:05:50;18.73;;;8.53;;
42600;SDS011;28229;48.856;9.088;2024-01-15T01:08:16;19.63;;;8.13;;
42600;SDS011;28229;48.856;9.088;2024-01-15T01:10:43;19.43;;;8.27;;
42600;SDS011;28229;48.856;9.088;2024-01-15T01:13:09;17.93;;;7.60;;
42600;SDS011;28229;48.856;9.088;2024-01-15T01:15:35;18.03;;;8.20;;
42600;SDS011;28229;48.856;9.088;2024-01-15T01:18:01;16.90;;;8.23;;
42600;SDS011;28229;48.856;9.088;2024-01-15T01:20:27;16.10;;;7.73;;
42600;SDS011;28229;48.856;9.088;2024-01-15T01:22:53;17.97;;;8.13;;
42600;SDS011;28229;48.856;9.088;2024-01-15T01:25:20;15.67;;;7.63;;
42600;SDS011;28229;48.856;9.088;2024-01-15T01:27:46;20.57;;;8.43;;
42600;SDS011;28229;48.856;9.088;2024-01-15T01:30:12;17.00;;;8.03;;
42600;SDS011;28229;48.856;9.088;2024-01-15T01:32:38;17.63;;;8.37;;
42600;SDS011;28229;48.856;9.088;2024-01-15T01:35:05;18.27;;;8.10;;
42600;SDS011;28229;48.856;9.088;2024-01-15T01:37:31;16.20;;;7.70;;
42600;SDS011;28229;48.856;9.088;2024-01-15T01:39:57;18.87;;;8.23;;
42600;SDS011;28229;48.856;9.088;2024-01-15T01:42:24;15.37;;;7.90;;
42600;SDS011;28229;48.856;9.088;2024-01-15T01:44:50;17.10;;;7.80;;
42600;SDS011;28229;48.856;9.088;2024-01-15T01:47:16;16.23;;;7.93;;
42600;SDS011;28229;48.856;9.088;2024-01-15T01:49:42;15.33;;;7.97;;
42600;SDS011;28229;48.856;9.088;2024-01-15T01:52:08;15.63;;;7.23;;
42600;SDS011;28229;48.856;9.088;2024-01-15T01:54:35;17.07;;;7.93;;
42600;SDS011;28229;48.856;9.088;2024-01-15T01:57:03;15.13;;;7.90;;
42600;SDS011;28229;48.856;9.088;2024-01-15T01:59:31;15.23;;;7.67;;
42600;SDS011;28229;48.856;9.088;2024-01-15T02:02:00;16.00;;;7.50;;
42600;SDS011;28229;48.856;9.088;2024-01-15T02:04:29;16.80;;;7.90;;
42600;SDS011;28229;48.856;9.088;2024-01-15T02:06:57;15.30;;;8.20;;
42600;SDS011;28229;48.856;9.088;2024-01-15T02:09:23;14.90;;;7.20;;
42600;SDS011;28229;48.856;9.088;2024-01-15T02:11:49;13.73;;;7.07;;
42600;SDS011;28229;48.856;9.088;2024-01-15T02:14:15;15.90;;;7.20;;
42600;SDS011;28229;48.856;9.088;2024-01-15T02:16:41;17.53;;;7.37;;
42600;SDS011;28229;48.856;9.088;2024-01-15T02:19:14;13.43;;;7.60;;
42600;SDS011;28229;48.856;9.088;2024-01-15T02:21:41;14.93;;;7.30;;
42600;SDS011;28229;48.856;9.088;2024-01-15T02:24:07;14.70;;;7.80;;
42600;SDS011;28229;48.856;9.088;2024-01-15T02:26:33;16.33;;;7.27;;
42600;SDS011;28229;48.856;9.088;2024-01-15T02:29:01;13.47;;;6.40;;
42600;SDS011;28229;48.856;9.088;2024-01-15T02:31:28;14.83;;;6.97;;
42600;SDS011;28229;48.856;9.088;2024-01-15T02:33:54;13.67;;;7.07;;
42600;SDS011;28229;48.856;9.088;2024-01-15T02:36:20;14.00;;;6.40;;
42600;SDS011;28229;48.856;9.088;2024-01-15T02:38:46;12.23;;;6.27;;
42600;SDS011;28229;48.856;9.088;2024-01-15T02:41:12;14.40;;;6.40;;
42600;SDS011;28229;48.856;9.088;2024-01-15T02:43:40;13.47;;;6.97;;
42600;SDS011;28229;48.856;9.088;2024-01-15T02:46:07;13.43;;;6.90;;
42600;SDS011;28229;48.856;9.088;2024-01-15T02:48:33;13.40;;;6.83;;
42600;SDS011;28229;48.856;9.088;2024-01-15T02:51:01;15.47;;;6.63;;
42600;SDS011;28229;48.856;9.088;2024-01-15T02:53:27;12.73;;;6.80;;
42600;SDS011;28229;48.856;9.088;2024-01-15T02:55:54;11.43;;;6.40;;
42600;SDS011;28229;48.856;9.088;2024-01-15T02:58:21;15.00;;;6.83;;
42600;SDS011;28229;48.856;9.088;2024-01-15T03:00:47;12.70;;;6.50;;
42600;SDS011;28229;48.856;9.088;2024-01-15T03:03:16;13.67;;;7.03;;
42600;SDS011;28229;48.856;9.088;2024-01-15T03:05:42;15.30;;;6.90;;
42600;SDS011;28229;48.856;9.088;2024-01-15T03:08:08;14.27;;;6.63;;
42600;SDS011;28229;48.856;9.088;2024-01-15T03:10:34;13.03;;;6.53;;
42600;SDS011;28229;48.856;9.088;2024-01-15T03:13:00;15.57;;;7.00;;
42600;SDS011;28229;48.856;9.088;2024-01-15T03:15:26;12.50;;;6.43;;
42600;SDS011;28229;48.856;9.088;2024-01-15T03:17:52;13.00;;;5.90;;
42600;SDS011;28229;48.856;9.088;2024-01-15T03:20:18;11.37;;;6.07;;
42600;SDS011;28229;48.856;9.088;2024-01-15T03:22:45;14.00;;;6.77;;
42600;SDS011;28229;48.856;9.088;2024-01-15T03:25:11;14.27;;;7.00;;
42600;SDS011;28229;48.856;9.088;2024-01-15T03:27:37;12.73;;;6.20;;
42600;SDS011;28229;48.856;9.088;2024-01-15T03:30:03;15.13;;;6.90;;
42600;SDS011;28229;48.856;9.088;2024-01-15T03:32:29;13.67;;;7.27;;
42600;SDS011;28229;48.856;9.088;2024-01-15T03:34:56;12.97;;;6.27;;
42600;SDS011;28229;48.856;9.088;2024-01-15T03:37:22;14.77;;;7.07;;
42600;SDS011;28229;48.856;9.088;2024-01-15T03:39:48;13.47;;;6.73;;
42600;SDS011;28229;48.856;9.088;2024-01-15T03:42:14;13.83;;;6.40;;
42600;SDS011;28229;48.856;9.088;2024-01-15T03:44:40;11.03;;;6.10;;
42600;SDS011;28229;48.856;9.088;2024-01-15T03:47:06;11.77;;;6.60;;
42600;SDS011;28229;48.856;9.088;2024-01-15T03:49:32;12.37;;;5.80;;
42600;SDS011;28229;48.856;9.088;2024-01-15T03:51:59;12.50;;;6.57;;
42600;SDS011;28229;48.856;9.088;2024-01-15T03:54:25;13.10;;;6.43;;
42600;SDS011;28229;48.856;9.088;2024-01-15T03:56:52;11.70;;;6.23;;
42600;SDS011;28229;48.856;9.088;2024-01-15T03:59:18;9.87;;;5.70;;
42600;SDS011;28229;48.856;9.088;2024-01-15T04:01:48;14.60;;;6.27;;
42600;SDS011;28229;48.856;9.088;2024-01-15T04:04:16;9.73;;;5.27;;
42600;SDS011;28229;48.856;9.088;2024-01-15T04:06:43;10.07;;;5.93;;
42600;SDS011;28229;48.856;9.088;2024-01-15T04:09:09;9.73;;;5.40;;
42600;SDS011;28229;48.856;9.088;2024-01-15T04:11:35;11.13;;;5.43;;
42600;SDS011;28229;48.856;9.088;2024-01-15T04:14:02;11.73;;;5.80;;
42600;SDS011;28229;48.856;9.088;2024-01-15T04:16:28;12.20;;;5.77;;
42600;SDS011;28229;48.856;9.088;2024-01-15T04:18:54;10.13;;;5.30;;
42600;SDS011;28229;48.856;9.088;2024-01-15T04:21:20;9.93;;;5.50;;
42600;SDS011;28229;48.856;9.088;2024-01-15T04:23:46;9.23;;;5.70;;
42600;SDS011;28229;48.856;9.088;2024-01-15T04:26:13;10.90;;;5.03;;
42600;SDS011;28229;48.856;9.088;2024-01-15T04:28:39;9.57;;;5.07;;
42600;SDS011;28229;48.856;9.088;2024-01-15T04:31:06;9.47;;;5.20;;
42600;SDS011;28229;48.856;9.088;2024-01-15T04:33:32;10.77;;;5.10;;
42600;SDS011;28229;48.856;9.088;2024-01-15T04:36:01;8.33;;;5.00;;
42600;SDS011;28229;48.856;9.088;2024-01-15T04:38:29;9.10;;;5.33;;
42600;SDS011;28229;48.856;9.088;2024-01-15T04:40:55;11.40;;;5.70;;
42600;SDS011;28229;48.856;9.088;2024-01-15T04:43:21;10.60;;;5.47;;
42600;SDS011;28229;48.856;9.088;2024-01-15T04:45:47;11.33;;;5.13;;
42600;SDS011;28229;48.856;9.088;2024-01-15T04:48:13;9.13;;;5.17;;
42600;SDS011;28229;48.856;9.088;2024-01-15T04:50:39;8.13;;;4.63;;
42600;SDS011;28229;48.856;9.088;2024-01-15T04:53:05;10.03;;;4.73;;
42600;SDS011;28229;48.856;9.088;2024-01-15T04:55:31;9.50;;;4.90;;
42600;SDS011;28229;48.856;9.088;2024-01-15T04:57:58;9.03;;;4.93;;
42600;SDS011;28229;48.856;9.088;2024-01-15T05:00:24;9.57;;;5.33;;
42600;SDS011;28229;48.856;9.088;2024-01-15T05:02:50;9.80;;;5.27;;
42600;SDS011;28229;48.856;9.088;2024-01-15T05:05:16;11.00;;;5.97;;
42600;SDS011;28229;48.856;9.088;2024-01-15T05:07:42;12.73;;;6.00;;
42600;SDS011;28229;48.856;9.088;2024-01-15T05:10:08;10.03;;;5.60;;
42600;SDS011;28229;48.856;9.088;2024-01-15T05:12:34;11.53;;;6.20;;
42600;SDS011;28229;48.856;9.088;2024-01-15T05:15:01;9.67;;;5.47;;
42600;SDS011;28229;48.856;9.088;2024-01-15T05:17:27;9.47;;;5.57;;
42600;SDS011;28229;48.856;9.088;2024-01-15T05:19:53;10.67;;;5.37;;
42600;SDS011;28229;48.856;9.088;2024-01-15T05:22:19;11.13;;;6.07;;
42600;SDS011;28229;48.856;9.088;2024-01-15T05:24:46;9.27;;;5.73;;
42600;SDS011;28229;48.856;9.088;2024-01-15T05:27:13;13.07;;;6.47;;
42600;SDS011;28229;48.856;9.088;2024-01-15T05:29:39;10.37;;;5.67;;
42600;SDS011;28229;48.856;9.088;2024-01-15T05:32:06;11.03;;;5.37;;
42600;SDS011;28229;48.856;9.088;2024-01-15T05:34:32;11.77;;;6.70;;
42600;SDS011;28229;48.856;9.088;2024-01-15T05:36:58;10.43;;;6.17;;
42600;SDS011;28229;48.856;9.088;2024-01-15T05:39:24;11.20;;;6.53;;
42600;SDS011;28229;48.856;9.088;2024-01-15T05:41:50;12.10;;;6.83;;
42600;SDS011;28229;48.856;9.088;2024-01-15T05:44:16;11.37;;;6.30;;
42600;SDS011;28229;48.856;9.088;2024-01-15T05:46:43;12.70;;;7.20;;
42600;SDS011;28229;48.856;9.088;2024-01-15T05:49:09;11.20;;;6.23;;
42600;SDS011;28229;48.856;9.088;2024-01-15T05:51:35;13.83;;;6.83;;
42600;SDS011;28229;48.856;9.088;2024-01-15T05:54:01;13.93;;;6.57;;
42600;SDS011;28229;48.856;9.088;2024-01-15T05:56:27;12.60;;;6.77;;
42600;SDS011;28229;48.856;9.088;2024-01-15T05:58:54;11.80;;;6.50;;
42600;SDS011;28229;48.856;9.088;2024-01-15T08:12:44;7.97;;;4.83;;
42600;SDS011;28229;48.856;9.088;2024-01-15T08:15:10;11.27;;;6.00;;
42600;SDS011;28229;48.856;9.088;2024-01-15T08:17:36;9.53;;;4.83;;
42600;SDS011;28229;48.856;9.088;2024-01-15T08:20:02;7.07;;;5.03;;
42600;SDS011;28229;48.856;9.088;2024-01-15T08:22:31;8.03;;;4.57;;
42600;SDS011;28229;48.856;9.088;2024-01-15T08:57:16;6.37;;;4.10;;
42600;SDS011;28229;48.856;9.088;2024-01-15T08:59:44;6.00;;;4.10;;
42600;SDS011;28229;48.856;9.088;2024-01-15T09:02:11;5.77;;;3.93;;
42600;SDS011;28229;48.856;9.088;2024-01-15T09:04:37;6.93;;;3.87;;
42600;SDS011;28229;48.856;9.088;2024-01-15T09:07:04;5.13;;;3.53;;
42600;SDS011;28229;48.856;9.088;2024-01-15T09:09:30;8.37;;;4.10;;
42600;SDS011;28229;48.856;9.088;2024-01-15T09:11:57;8.23;;;3.70;;
42600;SDS011;28229;48.856;9.088;2024-01-15T09:14:23;5.23;;;3.63;;
42600;SDS011;28229;48.856;9.088;2024-01-15T09:16:55;7.17;;;3.90;;
42600;SDS011;28229;48.856;9.088;2024-01-15T09:19:26;7.30;;;3.57;;
42600;SDS011;28229;48.856;9.088;2024-01-15T09:21:53;7.10;;;3.67;;
42600;SDS011;28229;48.856;9.088;2024-01-15T09:24:33;6.20;;;3.80;;
42600;SDS011;28229;48.856;9.088;2024-01-15T09:27:05;4.80;;;3.47;;
42600;SDS011;28229;48.856;9.088;2024-01-15T09:29:32;7.20;;;3.43;;
42600;SDS011;28229;48.856;9.088;2024-01-15T09:31:58;7.53;;;3.67;;
42600;SDS011;28229;48.856;9.088;2024-01-15T09:34:26;12.37;;;3.63;;
42600;SDS011;28229;48.856;9.088;2024-01-15T09:36:54;7.10;;;3.93;;
42600;SDS011;28229;48.856;9.088;2024-01-15T09:39:20;5.00;;;3.30;;
42600;SDS011;28229;48.856;9.088;2024-01-15T09:41:53;5.90;;;3.83;;
42600;SDS011;28229;48.856;9.088;2024-01-15T09:44:21;6.13;;;3.60;;
42600;SDS011;28229;48.856;9.088;2024-01-15T09:46:47;6.63;;;3.50;;
42600;SDS011;28229;48.856;9.088;2024-01-15T09:49:18;5.60;;;3.20;;
42600;SDS011;28229;48.856;9.088;2024-01-15T09:51:45;6.53;;;3.97;;
42600;SDS011;28229;48.856;9.088;2024-01-15T09:54:11;5.33;;;3.10;;
42600;SDS011;28229;48.856;9.088;2024-01-15T09:56:39;6.03;;;3.67;;
42600;SDS011;28229;48.856;9.088;2024-01-15T09:59:07;5.33;;;3.27;;
42600;SDS011;28229;48.856;9.088;2024-01-15T10:01:58;7.17;;;3.43;;
42600;SDS011;28229;48.856;9.088;2024-01-15T10:04:28;5.20;;;3.33;;
42600;SDS011;28229;48.856;9.088;2024-01-15T10:06:55;4.93;;;3.60;;
42600;SDS011;28229;48.856;9.088;2024-01-15T10:09:23;6.60;;;3.50;;
42600;SDS011;28229;48.856;9.088;2024-01-15T10:11:54;5.43;;;3.53;;
42600;SDS011;28229;48.856;9.088;2024-01-15T14:59:07;9.53;;;6.10;;
42600;SDS011;28229;48.856;9.088;2024-01-15T15:01:34;6.73;;;5.77;;
42600;SDS011;28229;48.856;9.088;2024-01-15T15:04:00;8.43;;;5.73;;
42600;SDS011;28229;48.856;9.088;2024-01-15T15:06:27;8.53;;;5.57;;
42600;SDS011;28229;48.856;9.088;2024-01-15T15:08:53;8.73;;;6.00;;
42600;SDS011;28229;48.856;9.088;2024-01-15T15:11:26;9.23;;;6.17;;
42600;SDS011;28229;48.856;9.088;2024-01-15T15:13:52;7.27;;;5.80;;
42600;SDS011;28229;48.856;9.088;2024-01-15T15:16:18;7.27;;;5.70;;
42600;SDS011;28229;48.856;9.088;2024-01-15T15:18:45;8.23;;;5.97;;
42600;SDS011;28229;48.856;9.088;2024-01-15T15:21:12;7.53;;;5.50;;
42600;SDS011;28229;48.856;9.088;2024-01-15T15:23:38;8.53;;;5.53;;
42600;SDS011;28229;48.856;9.088;2024-01-15T15:26:07;7.20;;;4.90;;
42600;SDS011;28229;48.856;9.088;2024-01-15T15:28:34;8.03;;;5.70;;
42600;SDS011;28229;48.856;9.088;2024-01-15T15:31:04;7.13;;;4.97;;
42600;SDS011;28229;48.856;9.088;2024-01-15T15:33:37;8.00;;;5.63;;
42600;SDS011;28229;48.856;9.088;2024-01-15T15:36:03;9.03;;;6.10;;
42600;SDS011;28229;48.856;9.088;2024-01-15T15:38:31;7.77;;;6.17;;
42600;SDS011;28229;48.856;9.088;2024-01-15T15:40:57;8.33;;;6.17;;
42600;SDS011;28229;48.856;9.088;2024-01-15T15:43:25;8.23;;;5.53;;
42600;SDS011;28229;48.856;9.088;2024-01-15T15:45:52;9.57;;;6.10;;
42600;SDS011;28229;48.856;9.088;2024-01-15T15:48:18;7.50;;;5.40;;
42600;SDS011;28229;48.856;9.088;2024-01-15T15:50:44;9.17;;;5.60;;
42600;SDS011;28229;48.856;9.088;2024-01-15T15:53:11;7.13;;;5.20;;
42600;SDS011;28229;48.856;9.088;2024-01-15T15:55:37;8.53;;;5.40;;
42600;SDS011;28229;48.856;9.088;2024-01-15T15:58:04;7.87;;;5.33;;
42600;SDS011;28229;48.856;9.088;2024-01-15T16:00:31;8.23;;;5.50;;
42600;SDS011;28229;48.856;9.088;2024-01-15T16:02:57;7.87;;;5.50;;
42600;SDS011;28229;48.856;9.088;2024-01-15T16:05:24;8.13;;;5.93;;
42600;SDS011;28229;48.856;9.088;2024-01-15T16:07:50;8.27;;;5.30;;
42600;SDS011;28229;48.856;9.088;2024-01-15T16:10:16;6.63;;;5.00;;
42600;SDS011;28229;48.856;9.088;2024-01-15T16:12:43;9.47;;;6.57;;
42600;SDS011;28229;48.856;9.088;2024-01-15T16:15:17;7.90;;;5.13;;
42600;SDS011;28229;48.856;9.088;2024-01-15T16:17:48;7.73;;;5.27;;
42600;SDS011;28229;48.856;9.088;2024-01-15T16:20:15;7.33;;;5.00;;
42600;SDS011;28229;48.856;9.088;2024-01-15T16:22:42;6.93;;;4.80;;
42600;SDS011;28229;48.856;9.088;2024-01-15T16:25:09;8.23;;;4.87;;
42600;SDS011;28229;48.856;9.088;2024-01-15T16:27:35;7.93;;;5.57;;
42600;SDS011;28229;48.856;9.088;2024-01-15T16:30:03;7.70;;;4.90;;
42600;SDS011;28229;48.856;9.088;2024-01-15T16:32:30;7.47;;;5.17;;
42600;SDS011;28229;48.856;9.088;2024-01-15T16:34:56;8.97;;;5.03;;
42600;SDS011;28229;48.856;9.088;2024-01-15T16:37:23;8.03;;;5.00;;
42600;SDS011;28229;48.856;9.088;2024-01-15T16:39:49;8.37;;;5.43;;
42600;SDS011;28229;48.856;9.088;2024-01-15T16:42:15;7.63;;;5.10;;
42600;SDS011;28229;48.856;9.088;2024-01-15T16:44:42;7.67;;;5.00;;
42600;SDS011;28229;48.856;9.088;2024-01-15T16:47:08;9.53;;;5.53;;
42600;SDS011;28229;48.856;9.088;2024-01-15T16:49:34;7.10;;;4.93;;
42600;SDS011;28229;48.856;9.088;2024-01-15T16:52:01;7.97;;;5.40;;
42600;SDS011;28229;48.856;9.088;2024-01-15T16:54:27;7.13;;;5.10;;
42600;SDS011;28229;48.856;9.088;2024-01-15T16:56:54;8.53;;;5.10;;
42600;SDS011;28229;48.856;9.088;2024-01-15T16:59:22;7.43;;;5.03;;
42600;SDS011;28229;48.856;9.088;2024-01-15T17:01:48;8.80;;;5.00;;
42600;SDS011;28229;48.856;9.088;2024-01-15T17:04:15;7.43;;;4.93;;
42600;SDS011;28229;48.856;9.088;2024-01-15T17:06:41;7.23;;;5.13;;
42600;SDS011;28229;48.856;9.088;2024-01-15T17:09:07;7.07;;;5.00;;
42600;SDS011;28229;48.856;9.088;2024-01-15T17:11:33;8.60;;;5.47;;
42600;SDS011;28229;48.856;9.088;2024-01-15T17:14:00;6.63;;;5.07;;
42600;SDS011;28229;48.856;9.088;2024-01-15T17:16:26;8.23;;;5.10;;
42600;SDS011;28229;48.856;9.088;2024-01-15T17:18:52;7.50;;;5.10;;
42600;SDS011;28229;48.856;9.088;2024-01-15T17:21:18;5.90;;;4.60;;
42600;SDS011;28229;48.856;9.088;2024-01-15T17:23:45;6.90;;;5.07;;
42600;SDS011;28229;48.856;9.088;2024-01-15T17:26:12;6.43;;;4.70;;
42600;SDS011;28229;48.856;9.088;2024-01-15T17:28:39;8.57;;;5.33;;
42600;SDS011;28229;48.856;9.088;2024-01-15T17:31:05;7.13;;;4.87;;
42600;SDS011;28229;48.856;9.088;2024-01-15T17:33:31;7.73;;;4.93;;
42600;SDS011;28229;48.856;9.088;2024-01-15T17:35:58;8.50;;;5.20;;
42600;SDS011;28229;48.856;9.088;2024-01-15T17:38:24;9.37;;;5.30;;
42600;SDS011;28229;48.856;9.088;2024-01-15T17:40:51;6.73;;;5.00;;
42600;SDS011;28229;48.856;9.088;2024-01-15T17:43:17;6.47;;;4.57;;
42600;SDS011;28229;48.856;9.088;2024-01-15T17:45:46;7.23;;;4.53;;
42600;SDS011;28229;48.856;9.088;2024-01-15T17:48:12;7.10;;;4.60;;
42600;SDS011;28229;48.856;9.088;2024-01-15T17:50:39;7.13;;;4.80;;
42600;SDS011;28229;48.856;9.088;2024-01-15T17:53:05;8.20;;;4.80;;
42600;SDS011;28229;48.856;9.088;2024-01-15T17:55:32;5.70;;;4.80;;
42600;SDS011;28229;48.856;9.088;2024-01-15T17:57:58;6.90;;;4.43;;
42600;SDS011;28229;48.856;9.088;2024-01-15T18:00:24;7.57;;;4.37;;
42600;SDS011;28229;48.856;9.088;2024-01-15T18:02:50;5.37;;;4.07;;
42600;SDS011;28229;48.856;9.088;2024-01-15T18:05:19;6.87;;;4.80;;
42600;SDS011;28229;48.856;9.088;2024-01-15T18:07:45;7.03;;;4.40;;
42600;SDS011;28229;48.856;9.088;2024-01-15T18:10:11;6.57;;;4.40;;
42600;SDS011;28229;48.856;9.088;2024-01-15T18:12:39;8.93;;;4.40;;
42600;SDS011;28229;48.856;9.088;2024-01-15T18:15:05;6.33;;;4.10;;
42600;SDS011;28229;48.856;9.088;2024-01-15T18:17:32;6.70;;;4.33;;
42600;SDS011;28229;48.856;9.088;2024-01-15T18:20:01;4.93;;;3.87;;
42600;SDS011;28229;48.856;9.088;2024-01-15T18:22:29;6.03;;;4.37;;
42600;SDS011;28229;48.856;9.088;2024-01-15T18:24:55;5.67;;;4.20;;
42600;SDS011;28229;48.856;9.088;2024-01-15T18:27:21;7.47;;;5.00;;
42600;SDS011;28229;48.856;9.088;2024-01-15T18:29:48;4.80;;;3.80;;
42600;SDS011;28229;48.856;9.088;2024-01-15T18:32:14;5.53;;;4.30;;
42600;SDS011;28229;48.856;9.088;2024-01-15T18:34:41;6.43;;;4.00;;
42600;SDS011;28229;48.856;9.088;2024-01-15T18:37:08;6.70;;;3.97;;
42600;SDS011;28229;48.856;9.088;2024-01-15T18:39:35;5.90;;;4.10;;
42600;SDS011;28229;48.856;9.088;2024-01-15T18:42:01;5.23;;;3.80;;
42600;SDS011;28229;48.856;9.088;2024-01-15T18:44:28;4.70;;;3.80;;
42600;SDS011;28229;48.856;9.088;2024-01-15T18:46:55;4.70;;;3.73;;
42600;SDS011;28229;48.856;9.088;2024-01-15T18:49:21;5.60;;;3.87;;
42600;SDS011;28229;48.856;9.088;2024-01-15T18:51:49;5.63;;;3.70;;
42600;SDS011;28229;48.856;9.088;2024-01-15T18:54:17;5.17;;;4.07;;
42600;SDS011;28229;48.856;9.088;2024-01-15T18:56:44;9.07;;;3.93;;
42600;SDS011;28229;48.856;9.088;2024-01-15T18:59:10;6.77;;;4.03;;
42600;SDS011;28229;48.856;9.088;2024-01-15T19:01:38;7.70;;;4.20;;
42600;SDS011;28229;48.856;9.088;2024-01-15T19:04:04;5.93;;;3.80;;
42600;SDS011;28229;48.856;9.088;2024-01-15T19:06:33;6.40;;;4.10;;
42600;SDS011;28229;48.856;9.088;2024-01-15T19:08:59;7.97;;;3.70;;
42600;SDS011;28229;48.856;9.088;2024-01-15T19:11:25;6.53;;;3.90;;
42600;SDS011;28229;48.856;9.088;2024-01-15T19:13:52;7.00;;;3.83;;
42600;SDS011;28229;48.856;9.088;2024-01-15T19:16:19;4.07;;;3.57;;
42600;SDS011;28229;48.856;9.088;2024-01-15T19:18:48;3.80;;;3.30;;
42600;SDS011;28229;48.856;9.088;2024-01-15T19:21:15;5.00;;;3.67;;
42600;SDS011;28229;48.856;9.088;2024-01-15T19:23:42;4.53;;;3.57;;
42600;SDS011;28229;48.856;9.088;2024-01-15T19:26:08;4.07;;;3.13;;
42600;SDS011;28229;48.856;9.088;2024-01-15T19:28:34;4.40;;;3.40;;
42600;SDS011;28229;48.856;9.088;2024-01-15T19:31:00;5.13;;;3.67;;
42600;SDS011;28229;48.856;9.088;2024-01-15T19:33:27;5.37;;;3.40;;
42600;SDS011;28229;48.856;9.088;2024-01-15T19:35:54;5.60;;;3.40;;
42600;SDS011;28229;48.856;9.088;2024-01-15T19:38:21;4.90;;;3.27;;
42600;SDS011;28229;48.856;9.088;2024-01-15T19:40:47;5.73;;;3.70;;
42600;SDS011;28229;48.856;9.088;2024-01-15T19:43:13;5.03;;;3.17;;
42600;SDS011;28229;48.856;9.088;2024-01-15T19:45:40;5.27;;;3.10;;
42600;SDS011;28229;48.856;9.088;2024-01-15T19:48:06;5.00;;;3.70;;
42600;SDS011;28229;48.856;9.088;2024-01-15T19:50:32;5.67;;;3.57;;
42600;SDS011;28229;48.856;9.088;2024-01-15T19:52:59;6.63;;;3.53;;
42600;SDS011;28229;48.856;9.088;2024-01-15T19:55:25;7.87;;;4.37;;
42600;SDS011;28229;48.856;9.088;2024-01-15T19:57:52;6.27;;;3.67;;
42600;SDS011;28229;48.856;9.088;2024-01-15T20:00:18;6.13;;;3.80;;
42600;SDS011;28229;48.856;9.088;2024-01-15T20:02:44;5.03;;;3.50;;
42600;SDS011;28229;48.856;9.088;2024-01-15T20:05:10;5.67;;;3.60;;
42600;SDS011;28229;48.856;9.088;2024-01-15T20:07:39;5.90;;;3.80;;
42600;SDS011;28229;48.856;9.088;2024-01-15T20:10:05;7.90;;;3.77;;
42600;SDS011;28229;48.856;9.088;2024-01-15T20:12:33;6.37;;;3.50;;
42600;SDS011;28229;48.856;9.088;2024-01-15T20:14:59;6.90;;;3.73;;
42600;SDS011;28229;48.856;9.088;2024-01-15T20:17:25;6.47;;;3.50;;
42600;SDS011;28229;48.856;9.088;2024-01-15T20:19:51;5.37;;;3.50;;
42600;SDS011;28229;48.856;9.088;2024-01-15T20:22:17;5.87;;;3.40;;
42600;SDS011;28229;48.856;9.088;2024-01-15T20:24:44;4.93;;;3.60;;
42600;SDS011;28229;48.856;9.088;2024-01-15T20:27:10;4.67;;;2.97;;
42600;SDS011;28229;48.856;9.088;2024-01-15T20:29:36;3.10;;;2.80;;
42600;SDS011;28229;48.856;9.088;2024-01-15T20:32:03;5.53;;;3.37;;
42600;SDS011;28229;48.856;9.088;2024-01-15T20:34:29;7.03;;;3.13;;
42600;SDS011;28229;48.856;9.088;2024-01-15T20:36:55;4.60;;;2.83;;
42600;SDS011;28229;48.856;9.088;2024-01-15T20:39:22;3.93;;;2.60;;
42600;SDS011;28229;48.856;9.088;2024-01-15T20:41:48;4.67;;;3.03;;
42600;SDS011;28229;48.856;9.088;2024-01-15T20:44:15;4.17;;;2.93;;
42600;SDS011;28229;48.856;9.088;2024-01-15T20:46:41;4.73;;;2.77;;
42600;SDS011;28229;48.856;9.088;2024-01-15T20:49:07;3.20;;;2.70;;
42600;SDS011;28229;48.856;9.088;2024-01-15T20:51:33;4.73;;;2.80;;
42600;SDS011;28229;48.856;9.088;2024-01-15T20:53:59;3.60;;;2.83;;
42600;SDS011;28229;48.856;9.088;2024-01-15T20:56:25;3.73;;;2.90;;
42600;SDS011;28229;48.856;9.088;2024-01-15T20:58:53;3.40;;;2.80;;
42600;SDS011;28229;48.856;9.088;2024-01-15T21:01:19;4.10;;;2.70;;
42600;SDS011;28229;48.856;9.088;2024-01-15T21:03:46;5.10;;;3.20;;
42600;SDS011;28229;48.856;9.088;2024-01-15T21:06:12;4.10;;;3.00;;
42600;SDS011;28229;48.856;9.088;2024-01-15T21:08:38;7.13;;;3.13;;
42600;SDS011;28229;48.856;9.088;2024-01-15T21:11:06;4.47;;;2.70;;
42600;SDS011;28229;48.856;9.088;2024-01-15T21:13:32;4.83;;;2.93;;
42600;SDS011;28229;48.856;9.088;2024-01-15T21:15:59;5.80;;;3.20;;
42600;SDS011;28229;48.856;9.088;2024-01-15T21:18:25;3.50;;;3.00;;
42600;SDS011;28229;48.856;9.088;2024-01-15T21:20:51;5.57;;;3.13;;
42600;SDS011;28229;48.856;9.088;2024-01-15T21:23:18;4.60;;;2.80;;
42600;SDS011;28229;48.856;9.088;2024-01-15T21:25:44;2.97;;;2.70;;
42600;SDS011;28229;48.856;9.088;2024-01-15T21:28:10;5.53;;;3.07;;
42600;SDS011;28229;48.856;9.088;2024-01-15T21:30:36;5.50;;;2.97;;
42600;SDS011;28229;48.856;9.088;2024-01-15T21:33:02;3.87;;;3.30;;
42600;SDS011;28229;48.856;9.088;2024-01-15T21:35:30;3.90;;;2.60;;
42600;SDS011;28229;48.856;9.088;2024-01-15T21:37:56;5.17;;;3.20;;
42600;SDS011;28229;48.856;9.088;2024-01-15T21:40:22;5.03;;;2.80;;
42600;SDS011;28229;48.856;9.088;2024-01-15T21:42:49;5.07;;;3.33;;
42600;SDS011;28229;48.856;9.088;2024-01-15T21:45:15;6.07;;;3.50;;
42600;SDS011;28229;48.856;9.088;2024-01-15T21:47:41;5.73;;;3.10;;
42600;SDS011;28229;48.856;9.088;2024-01-15T21:50:07;4.40;;;3.20;;
42600;SDS011;28229;48.856;9.088;2024-01-15T21:52:37;4.43;;;2.90;;
42600;SDS011;28229;48.856;9.088;2024-01-15T21:55:04;3.27;;;2.63;;
42600;SDS011;28229;48.856;9.088;2024-01-15T21:57:33;4.83;;;3.30;;
42600;SDS011;28229;48.856;9.088;2024-01-15T21:59:59;3.47;;;2.73;;
42600;SDS011;28229;48.856;9.088;2024-01-15T22:02:26;6.07;;;3.50;;
42600;SDS011;28229;48.856;9.088;2024-01-15T22:04:55;5.73;;;3.37;;
42600;SDS011;28229;48.856;9.088;2024-01-15T22:07:21;4.40;;;3.17;;
42600;SDS011;28229;48.856;9.088;2024-01-15T22:09:47;5.13;;;3.17;;